sensor_id;sensor_type;location;lat;lon;timestamp;P1;durP1;ratioP1;P2;durP2;ratioP2
59974;SDS011;62136;-35.664;-63.766;2022-09-09T00:00:32;8.85;;;1.92;;
59974;SDS011;62136;-35.664;-63.766;2022-09-09T00:08:25;12.88;;;2.35;;
59974;SDS011;62136;-35.664;-63.766;2022-09-09T00:11:04;12.73;;;2.58;;
59974;SDS011;62136;-35.664;-63.766;2022-09-09T00:13:37;8.35;;;2.05;;
59974;SDS011;62136;-35.664;-63.766;2022-09-09T00:16:22;11.57;;;2.08;;
59974;SDS011;62136;-35.664;-63.766;2022-09-09T00:19:02;18.85;;;2.70;;
59974;SDS011;62136;-35.664;-63.766;2022-09-09T00:24:51;40.75;;;4.18;;
59974;SDS011;62136;-35.664;-63.766;2022-09-09T00:27:30;23.17;;;3.17;;
59974;SDS011;62136;-35.664;-63.766;2022-09-09T00:32:41;16.42;;;3.35;;
59974;SDS011;62136;-35.664;-63.766;2022-09-09T00:37:37;16.17;;;3.00;;
59974;SDS011;62136;-35.664;-63.766;2022-09-09T00:40:11;11.18;;;2.40;;
59974;SDS011;62136;-35.664;-63.766;2022-09-09T00:42:51;17.20;;;2.93;;
59974;SDS011;62136;-35.664;-63.766;2022-09-09T00:48:10;13.55;;;1.98;;
59974;SDS011;62136;-35.664;-63.766;2022-09-09T00:56:13;14.90;;;3.28;;
59974;SDS011;62136;-35.664;-63.766;2022-09-09T00:58:59;9.18;;;1.80;;
59974;SDS011;62136;-35.664;-63.766;2022-09-09T01:01:42;10.90;;;2.45;;
59974;SDS011;62136;-35.664;-63.766;2022-09-09T01:04:11;10.98;;;1.73;;
59974;SDS011;62136;-35.664;-63.766;2022-09-09T01:06:45;15.20;;;2.63;;
59974;SDS011;62136;-35.664;-63.766;2022-09-09T01:15:41;13.95;;;2.15;;
59974;SDS011;62136;-35.664;-63.766;2022-09-09T01:28:03;9.95;;;2.55;;
59974;SDS011;62136;-35.664;-63.766;2022-09-09T01:30:35;9.30;;;1.95;;
59974;SDS011;62136;-35.664;-63.766;2022-09-09T01:33:04;11.32;;;1.80;;
59974;SDS011;62136;-35.664;-63.766;2022-09-09T01:35:40;9.80;;;2.17;;
59974;SDS011;62136;-35.664;-63.766;2022-09-09T01:38:09;15.10;;;2.00;;
59974;SDS011;62136;-35.664;-63.766;2022-09-09T01:40:37;10.68;;;1.95;;
59974;SDS011;62136;-35.664;-63.766;2022-09-09T01:43:04;10.48;;;1.60;;
59974;SDS011;62136;-35.664;-63.766;2022-09-09T01:45:33;9.85;;;2.45;;
59974;SDS011;62136;-35.664;-63.766;2022-09-09T01:48:00;11.82;;;1.77;;
59974;SDS011;62136;-35.664;-63.766;2022-09-09T01:50:28;7.40;;;1.80;;
59974;SDS011;62136;-35.664;-63.766;2022-09-09T01:52:59;8.45;;;2.45;;
59974;SDS011;62136;-35.664;-63.766;2022-09-09T01:55:37;6.95;;;2.00;;
59974;SDS011;62136;-35.664;-63.766;2022-09-09T02:00:56;9.07;;;2.47;;
59974;SDS011;62136;-35.664;-63.766;2022-09-09T02:03:30;5.35;;;1.60;;
59974;SDS011;62136;-35.664;-63.766;2022-09-09T02:08:50;5.70;;;1.55;;
59974;SDS011;62136;-35.664;-63.766;2022-09-09T02:11:26;6.20;;;1.70;;
59974;SDS011;62136;-35.664;-63.766;2022-09-09T02:13:56;7.18;;;1.60;;
59974;SDS011;62136;-35.664;-63.766;2022-09-09T02:21:55;6.45;;;1.55;;
59974;SDS011;62136;-35.664;-63.766;2022-09-09T02:24:23;7.28;;;1.85;;
59974;SDS011;62136;-35.664;-63.766;2022-09-09T02:26:56;5.55;;;1.23;;
59974;SDS011;62136;-35.664;-63.766;2022-09-09T02:29:28;4.78;;;1.35;;
59974;SDS011;62136;-35.664;-63.766;2022-09-09T02:32:03;7.22;;;1.77;;
59974;SDS011;62136;-35.664;-63.766;2022-09-09T02:37:02;8.18;;;1.45;;
59974;SDS011;62136;-35.664;-63.766;2022-09-09T02:39:32;4.18;;;1.35;;
59974;SDS011;62136;-35.664;-63.766;2022-09-09T02:42:03;3.38;;;1.33;;
59974;SDS011;62136;-35.664;-63.766;2022-09-09T02:44:30;5.35;;;1.27;;
59974;SDS011;62136;-35.664;-63.766;2022-09-09T02:47:09;10.48;;;2.33;;
59974;SDS011;62136;-35.664;-63.766;2022-09-09T02:52:08;6.55;;;1.90;;
59974;SDS011;62136;-35.664;-63.766;2022-09-09T02:54:41;6.53;;;1.80;;
59974;SDS011;62136;-35.664;-63.766;2022-09-09T02:57:13;5.53;;;1.38;;
59974;SDS011;62136;-35.664;-63.766;2022-09-09T02:59:48;8.55;;;1.80;;
59974;SDS011;62136;-35.664;-63.766;2022-09-09T03:02:17;7.97;;;1.92;;
59974;SDS011;62136;-35.664;-63.766;2022-09-09T03:04:44;4.57;;;1.50;;
59974;SDS011;62136;-35.664;-63.766;2022-09-09T03:07:16;4.47;;;1.48;;
59974;SDS011;62136;-35.664;-63.766;2022-09-09T03:09:44;5.28;;;1.50;;
59974;SDS011;62136;-35.664;-63.766;2022-09-09T03:12:11;5.03;;;1.30;;
59974;SDS011;62136;-35.664;-63.766;2022-09-09T03:14:38;4.13;;;1.70;;
59974;SDS011;62136;-35.664;-63.766;2022-09-09T03:17:08;5.20;;;1.58;;
59974;SDS011;62136;-35.664;-63.766;2022-09-09T03:19:35;2.78;;;1.20;;
59974;SDS011;62136;-35.664;-63.766;2022-09-09T03:22:03;4.57;;;1.20;;
59974;SDS011;62136;-35.664;-63.766;2022-09-09T03:24:30;5.88;;;1.60;;
59974;SDS011;62136;-35.664;-63.766;2022-09-09T03:26:57;5.85;;;1.50;;
59974;SDS011;62136;-35.664;-63.766;2022-09-09T03:29:27;3.00;;;1.52;;
59974;SDS011;62136;-35.664;-63.766;2022-09-09T03:31:54;5.80;;;1.65;;
59974;SDS011;62136;-35.664;-63.766;2022-09-09T03:34:21;6.45;;;1.70;;
59974;SDS011;62136;-35.664;-63.766;2022-09-09T03:36:48;3.28;;;1.60;;
59974;SDS011;62136;-35.664;-63.766;2022-09-09T03:39:16;4.30;;;1.30;;
59974;SDS011;62136;-35.664;-63.766;2022-09-09T03:41:43;9.57;;;1.67;;
59974;SDS011;62136;-35.664;-63.766;2022-09-09T03:44:10;6.13;;;1.83;;
59974;SDS011;62136;-35.664;-63.766;2022-09-09T03:46:37;4.88;;;1.52;;
59974;SDS011;62136;-35.664;-63.766;2022-09-09T03:49:04;5.38;;;1.30;;
59974;SDS011;62136;-35.664;-63.766;2022-09-09T03:51:38;5.38;;;1.65;;
59974;SDS011;62136;-35.664;-63.766;2022-09-09T03:54:08;2.72;;;1.10;;
59974;SDS011;62136;-35.664;-63.766;2022-09-09T03:56:36;5.95;;;1.58;;
59974;SDS011;62136;-35.664;-63.766;2022-09-09T03:59:03;3.30;;;1.60;;
59974;SDS011;62136;-35.664;-63.766;2022-09-09T04:01:30;8.02;;;1.30;;
59974;SDS011;62136;-35.664;-63.766;2022-09-09T04:03:57;6.38;;;1.50;;
59974;SDS011;62136;-35.664;-63.766;2022-09-09T04:06:24;5.80;;;1.70;;
59974;SDS011;62136;-35.664;-63.766;2022-09-09T04:08:51;5.78;;;1.80;;
59974;SDS011;62136;-35.664;-63.766;2022-09-09T04:11:18;4.53;;;1.65;;
59974;SDS011;62136;-35.664;-63.766;2022-09-09T04:13:46;7.35;;;1.98;;
59974;SDS011;62136;-35.664;-63.766;2022-09-09T04:16:13;3.80;;;1.27;;
59974;SDS011;62136;-35.664;-63.766;2022-09-09T04:18:40;4.82;;;1.73;;
59974;SDS011;62136;-35.664;-63.766;2022-09-09T04:21:08;5.45;;;1.67;;
59974;SDS011;62136;-35.664;-63.766;2022-09-09T04:23:36;5.63;;;1.50;;
59974;SDS011;62136;-35.664;-63.766;2022-09-09T04:26:04;3.83;;;1.25;;
59974;SDS011;62136;-35.664;-63.766;2022-09-09T04:28:32;6.07;;;1.83;;
59974;SDS011;62136;-35.664;-63.766;2022-09-09T04:31:05;4.25;;;1.60;;
59974;SDS011;62136;-35.664;-63.766;2022-09-09T04:33:34;5.85;;;1.52;;
59974;SDS011;62136;-35.664;-63.766;2022-09-09T04:36:02;3.95;;;1.50;;
59974;SDS011;62136;-35.664;-63.766;2022-09-09T04:38:29;2.63;;;1.25;;
59974;SDS011;62136;-35.664;-63.766;2022-09-09T04:40:56;4.07;;;1.38;;
59974;SDS011;62136;-35.664;-63.766;2022-09-09T04:43:24;6.00;;;1.50;;
59974;SDS011;62136;-35.664;-63.766;2022-09-09T04:45:54;7.82;;;1.38;;
59974;SDS011;62136;-35.664;-63.766;2022-09-09T04:48:21;4.90;;;1.55;;
59974;SDS011;62136;-35.664;-63.766;2022-09-09T04:50:58;4.53;;;1.40;;
59974;SDS011;62136;-35.664;-63.766;2022-09-09T04:53:33;3.70;;;1.58;;
59974;SDS011;62136;-35.664;-63.766;2022-09-09T04:56:08;3.17;;;1.70;;
59974;SDS011;62136;-35.664;-63.766;2022-09-09T04:58:39;4.38;;;1.40;;
59974;SDS011;62136;-35.664;-63.766;2022-09-09T05:01:15;5.07;;;1.70;;
59974;SDS011;62136;-35.664;-63.766;2022-09-09T05:03:47;5.55;;;1.65;;
59974;SDS011;62136;-35.664;-63.766;2022-09-09T05:06:19;2.65;;;1.20;;
59974;SDS011;62136;-35.664;-63.766;2022-09-09T05:08:47;4.40;;;1.63;;
59974;SDS011;62136;-35.664;-63.766;2022-09-09T05:11:21;4.32;;;1.67;;
59974;SDS011;62136;-35.664;-63.766;2022-09-09T05:13:51;2.92;;;1.40;;
59974;SDS011;62136;-35.664;-63.766;2022-09-09T05:16:22;3.38;;;1.48;;
59974;SDS011;62136;-35.664;-63.766;2022-09-09T05:18:50;3.72;;;1.70;;
59974;SDS011;62136;-35.664;-63.766;2022-09-09T05:21:17;3.65;;;1.65;;
59974;SDS011;62136;-35.664;-63.766;2022-09-09T05:23:50;4.63;;;1.42;;
59974;SDS011;62136;-35.664;-63.766;2022-09-09T05:26:18;5.60;;;1.40;;
59974;SDS011;62136;-35.664;-63.766;2022-09-09T05:28:49;6.15;;;1.65;;
59974;SDS011;62136;-35.664;-63.766;2022-09-09T05:31:17;3.50;;;1.20;;
59974;SDS011;62136;-35.664;-63.766;2022-09-09T05:33:45;4.20;;;2.03;;
59974;SDS011;62136;-35.664;-63.766;2022-09-09T05:36:18;3.85;;;1.33;;
59974;SDS011;62136;-35.664;-63.766;2022-09-09T05:38:50;3.63;;;1.23;;
59974;SDS011;62136;-35.664;-63.766;2022-09-09T05:41:21;3.47;;;1.60;;
59974;SDS011;62136;-35.664;-63.766;2022-09-09T05:43:48;5.13;;;1.75;;
59974;SDS011;62136;-35.664;-63.766;2022-09-09T05:46:16;4.25;;;1.58;;
59974;SDS011;62136;-35.664;-63.766;2022-09-09T05:48:46;3.25;;;1.80;;
59974;SDS011;62136;-35.664;-63.766;2022-09-09T05:51:16;5.57;;;1.38;;
59974;SDS011;62136;-35.664;-63.766;2022-09-09T05:53:46;5.35;;;1.75;;
59974;SDS011;62136;-35.664;-63.766;2022-09-09T05:56:14;2.75;;;1.60;;
59974;SDS011;62136;-35.664;-63.766;2022-09-09T05:58:47;2.47;;;1.50;;
59974;SDS011;62136;-35.664;-63.766;2022-09-09T06:01:16;3.75;;;1.23;;
59974;SDS011;62136;-35.664;-63.766;2022-09-09T06:03:51;3.42;;;1.52;;
59974;SDS011;62136;-35.664;-63.766;2022-09-09T06:06:20;3.08;;;1.40;;
59974;SDS011;62136;-35.664;-63.766;2022-09-09T06:08:53;4.10;;;1.55;;
59974;SDS011;62136;-35.664;-63.766;2022-09-09T06:11:27;4.95;;;1.33;;
59974;SDS011;62136;-35.664;-63.766;2022-09-09T06:13:57;3.50;;;1.40;;
59974;SDS011;62136;-35.664;-63.766;2022-09-09T06:16:25;2.58;;;1.00;;
59974;SDS011;62136;-35.664;-63.766;2022-09-09T06:18:55;3.80;;;1.40;;
59974;SDS011;62136;-35.664;-63.766;2022-09-09T06:21:27;2.58;;;1.30;;
59974;SDS011;62136;-35.664;-63.766;2022-09-09T06:24:02;3.97;;;1.20;;
59974;SDS011;62136;-35.664;-63.766;2022-09-09T06:26:31;2.13;;;1.35;;
59974;SDS011;62136;-35.664;-63.766;2022-09-09T06:29:00;3.40;;;1.30;;
59974;SDS011;62136;-35.664;-63.766;2022-09-09T06:31:29;3.05;;;1.10;;
59974;SDS011;62136;-35.664;-63.766;2022-09-09T06:34:00;3.15;;;1.17;;
59974;SDS011;62136;-35.664;-63.766;2022-09-09T06:36:33;3.13;;;1.20;;
59974;SDS011;62136;-35.664;-63.766;2022-09-09T06:39:03;2.97;;;1.30;;
59974;SDS011;62136;-35.664;-63.766;2022-09-09T06:41:31;3.03;;;1.45;;
59974;SDS011;62136;-35.664;-63.766;2022-09-09T06:43:59;3.22;;;1.40;;
59974;SDS011;62136;-35.664;-63.766;2022-09-09T06:46:27;5.90;;;1.38;;
59974;SDS011;62136;-35.664;-63.766;2022-09-09T06:48:57;3.20;;;1.30;;
59974;SDS011;62136;-35.664;-63.766;2022-09-09T06:51:29;2.83;;;1.40;;
59974;SDS011;62136;-35.664;-63.766;2022-09-09T06:53:58;3.30;;;1.20;;
59974;SDS011;62136;-35.664;-63.766;2022-09-09T06:56:40;3.83;;;1.60;;
59974;SDS011;62136;-35.664;-63.766;2022-09-09T06:59:09;2.90;;;1.25;;
59974;SDS011;62136;-35.664;-63.766;2022-09-09T07:01:41;2.95;;;1.27;;
59974;SDS011;62136;-35.664;-63.766;2022-09-09T07:04:19;2.92;;;1.52;;
59974;SDS011;62136;-35.664;-63.766;2022-09-09T07:06:46;4.15;;;1.42;;
59974;SDS011;62136;-35.664;-63.766;2022-09-09T07:09:14;4.13;;;1.38;;
59974;SDS011;62136;-35.664;-63.766;2022-09-09T07:11:43;5.13;;;1.20;;
59974;SDS011;62136;-35.664;-63.766;2022-09-09T07:14:14;4.30;;;1.70;;
59974;SDS011;62136;-35.664;-63.766;2022-09-09T07:16:42;3.28;;;1.27;;
59974;SDS011;62136;-35.664;-63.766;2022-09-09T07:19:11;3.47;;;1.17;;
59974;SDS011;62136;-35.664;-63.766;2022-09-09T07:21:39;2.42;;;1.42;;
59974;SDS011;62136;-35.664;-63.766;2022-09-09T07:24:07;2.22;;;1.08;;
59974;SDS011;62136;-35.664;-63.766;2022-09-09T07:26:36;4.72;;;1.40;;
59974;SDS011;62136;-35.664;-63.766;2022-09-09T07:29:05;2.08;;;1.10;;
59974;SDS011;62136;-35.664;-63.766;2022-09-09T07:31:34;2.85;;;1.23;;
59974;SDS011;62136;-35.664;-63.766;2022-09-09T07:34:03;4.45;;;1.20;;
59974;SDS011;62136;-35.664;-63.766;2022-09-09T07:36:32;3.00;;;1.55;;
59974;SDS011;62136;-35.664;-63.766;2022-09-09T07:39:02;3.95;;;1.50;;
59974;SDS011;62136;-35.664;-63.766;2022-09-09T07:41:34;2.28;;;1.27;;
59974;SDS011;62136;-35.664;-63.766;2022-09-09T07:44:08;3.42;;;1.20;;
59974;SDS011;62136;-35.664;-63.766;2022-09-09T07:46:40;4.13;;;1.30;;
59974;SDS011;62136;-35.664;-63.766;2022-09-09T07:49:08;3.83;;;1.10;;
59974;SDS011;62136;-35.664;-63.766;2022-09-09T07:51:37;1.77;;;1.00;;
59974;SDS011;62136;-35.664;-63.766;2022-09-09T07:54:08;2.42;;;1.13;;
59974;SDS011;62136;-35.664;-63.766;2022-09-09T07:56:38;3.63;;;1.40;;
59974;SDS011;62136;-35.664;-63.766;2022-09-09T07:59:06;2.00;;;1.00;;
59974;SDS011;62136;-35.664;-63.766;2022-09-09T08:01:39;1.88;;;1.10;;
59974;SDS011;62136;-35.664;-63.766;2022-09-09T08:04:09;3.03;;;1.52;;
59974;SDS011;62136;-35.664;-63.766;2022-09-09T08:06:42;2.85;;;1.27;;
59974;SDS011;62136;-35.664;-63.766;2022-09-09T08:09:11;2.13;;;1.10;;
59974;SDS011;62136;-35.664;-63.766;2022-09-09T08:11:40;2.63;;;1.15;;
59974;SDS011;62136;-35.664;-63.766;2022-09-09T08:14:08;2.67;;;1.10;;
59974;SDS011;62136;-35.664;-63.766;2022-09-09T08:16:39;3.35;;;1.40;;
59974;SDS011;62136;-35.664;-63.766;2022-09-09T08:19:08;2.42;;;1.25;;
59974;SDS011;62136;-35.664;-63.766;2022-09-09T08:21:36;2.00;;;1.00;;
59974;SDS011;62136;-35.664;-63.766;2022-09-09T08:24:05;2.35;;;1.20;;
59974;SDS011;62136;-35.664;-63.766;2022-09-09T08:26:34;2.20;;;1.10;;
59974;SDS011;62136;-35.664;-63.766;2022-09-09T08:29:07;3.45;;;1.35;;
59974;SDS011;62136;-35.664;-63.766;2022-09-09T08:31:40;3.28;;;1.25;;
59974;SDS011;62136;-35.664;-63.766;2022-09-09T08:34:12;3.22;;;1.33;;
59974;SDS011;62136;-35.664;-63.766;2022-09-09T08:36:40;3.53;;;1.30;;
59974;SDS011;62136;-35.664;-63.766;2022-09-09T08:39:10;2.97;;;1.30;;
59974;SDS011;62136;-35.664;-63.766;2022-09-09T08:47:06;2.33;;;0.95;;
59974;SDS011;62136;-35.664;-63.766;2022-09-09T08:52:18;3.10;;;0.80;;
59974;SDS011;62136;-35.664;-63.766;2022-09-09T08:55:21;2.33;;;0.98;;
59974;SDS011;62136;-35.664;-63.766;2022-09-09T08:57:52;2.22;;;1.17;;
59974;SDS011;62136;-35.664;-63.766;2022-09-09T09:00:21;3.63;;;0.90;;
59974;SDS011;62136;-35.664;-63.766;2022-09-09T09:02:59;2.88;;;1.35;;
59974;SDS011;62136;-35.664;-63.766;2022-09-09T09:05:46;1.30;;;1.10;;
59974;SDS011;62136;-35.664;-63.766;2022-09-09T09:11:18;2.97;;;1.10;;
59974;SDS011;62136;-35.664;-63.766;2022-09-09T09:19:21;2.20;;;1.20;;
59974;SDS011;62136;-35.664;-63.766;2022-09-09T09:21:55;1.95;;;1.20;;
59974;SDS011;62136;-35.664;-63.766;2022-09-09T09:27:58;2.65;;;1.15;;
59974;SDS011;62136;-35.664;-63.766;2022-09-09T09:30:38;3.58;;;1.20;;
59974;SDS011;62136;-35.664;-63.766;2022-09-09T09:35:42;1.33;;;1.10;;
59974;SDS011;62136;-35.664;-63.766;2022-09-09T09:38:20;2.55;;;1.13;;
59974;SDS011;62136;-35.664;-63.766;2022-09-09T09:40:50;2.25;;;1.33;;
59974;SDS011;62136;-35.664;-63.766;2022-09-09T09:43:36;2.10;;;1.23;;
59974;SDS011;62136;-35.664;-63.766;2022-09-09T09:46:17;3.25;;;1.40;;
59974;SDS011;62136;-35.664;-63.766;2022-09-09T09:49:00;2.13;;;1.10;;
59974;SDS011;62136;-35.664;-63.766;2022-09-09T09:51:31;2.53;;;1.30;;
59974;SDS011;62136;-35.664;-63.766;2022-09-09T09:54:17;2.40;;;0.95;;
59974;SDS011;62136;-35.664;-63.766;2022-09-09T09:56:54;3.40;;;1.35;;
59974;SDS011;62136;-35.664;-63.766;2022-09-09T09:59:41;2.63;;;0.90;;
59974;SDS011;62136;-35.664;-63.766;2022-09-09T10:05:00;1.60;;;1.00;;
59974;SDS011;62136;-35.664;-63.766;2022-09-09T10:07:32;2.83;;;1.17;;
59974;SDS011;62136;-35.664;-63.766;2022-09-09T10:09:59;2.40;;;1.00;;
59974;SDS011;62136;-35.664;-63.766;2022-09-09T10:29:58;2.08;;;1.33;;
59974;SDS011;62136;-35.664;-63.766;2022-09-09T10:36:38;5.00;;;1.42;;
59974;SDS011;62136;-35.664;-63.766;2022-09-09T10:44:39;3.85;;;1.13;;
59974;SDS011;62136;-35.664;-63.766;2022-09-09T10:47:37;1.67;;;1.13;;
59974;SDS011;62136;-35.664;-63.766;2022-09-09T10:56:20;1.25;;;1.00;;
59974;SDS011;62136;-35.664;-63.766;2022-09-09T10:58:53;4.45;;;1.30;;
59974;SDS011;62136;-35.664;-63.766;2022-09-09T11:02:25;5.97;;;1.80;;
59974;SDS011;62136;-35.664;-63.766;2022-09-09T11:04:45;2.03;;;1.10;;
59974;SDS011;62136;-35.664;-63.766;2022-09-09T11:10:03;4.03;;;1.20;;
59974;SDS011;62136;-35.664;-63.766;2022-09-09T11:12:39;1.75;;;1.23;;
59974;SDS011;62136;-35.664;-63.766;2022-09-09T11:15:20;2.38;;;1.13;;
59974;SDS011;62136;-35.664;-63.766;2022-09-09T11:18:03;3.20;;;1.23;;
59974;SDS011;62136;-35.664;-63.766;2022-09-09T11:20:33;1.08;;;0.90;;
59974;SDS011;62136;-35.664;-63.766;2022-09-09T11:25:36;4.70;;;1.33;;
59974;SDS011;62136;-35.664;-63.766;2022-09-09T11:28:26;3.33;;;1.23;;
59974;SDS011;62136;-35.664;-63.766;2022-09-09T11:31:08;4.00;;;1.38;;
59974;SDS011;62136;-35.664;-63.766;2022-09-09T11:33:51;2.90;;;1.30;;
59974;SDS011;62136;-35.664;-63.766;2022-09-09T11:36:55;2.28;;;1.55;;
59974;SDS011;62136;-35.664;-63.766;2022-09-09T11:39:33;4.00;;;1.40;;
59974;SDS011;62136;-35.664;-63.766;2022-09-09T11:44:40;6.22;;;1.48;;
59974;SDS011;62136;-35.664;-63.766;2022-09-09T11:47:22;4.60;;;1.65;;
59974;SDS011;62136;-35.664;-63.766;2022-09-09T11:52:45;2.28;;;1.15;;
59974;SDS011;62136;-35.664;-63.766;2022-09-09T11:55:29;4.03;;;1.63;;
59974;SDS011;62136;-35.664;-63.766;2022-09-09T11:58:03;2.80;;;1.52;;
59974;SDS011;62136;-35.664;-63.766;2022-09-09T12:00:35;2.65;;;1.50;;
59974;SDS011;62136;-35.664;-63.766;2022-09-09T12:06:08;4.53;;;1.23;;
59974;SDS011;62136;-35.664;-63.766;2022-09-09T12:08:51;2.53;;;1.38;;
59974;SDS011;62136;-35.664;-63.766;2022-09-09T12:11:29;5.40;;;2.72;;
59974;SDS011;62136;-35.664;-63.766;2022-09-09T12:13:58;3.63;;;2.45;;
59974;SDS011;62136;-35.664;-63.766;2022-09-09T12:16:30;7.00;;;3.53;;
59974;SDS011;62136;-35.664;-63.766;2022-09-09T12:19:15;6.97;;;3.28;;
59974;SDS011;62136;-35.664;-63.766;2022-09-09T12:25:00;8.40;;;3.88;;
59974;SDS011;62136;-35.664;-63.766;2022-09-09T12:33:23;9.88;;;3.95;;
59974;SDS011;62136;-35.664;-63.766;2022-09-09T12:35:59;14.77;;;4.40;;
59974;SDS011;62136;-35.664;-63.766;2022-09-09T12:38:30;10.88;;;4.40;;
59974;SDS011;62136;-35.664;-63.766;2022-09-09T12:41:03;11.15;;;4.93;;
59974;SDS011;62136;-35.664;-63.766;2022-09-09T12:43:31;6.82;;;4.22;;
59974;SDS011;62136;-35.664;-63.766;2022-09-09T12:45:59;16.83;;;4.50;;
59974;SDS011;62136;-35.664;-63.766;2022-09-09T12:51:02;10.05;;;4.60;;
59974;SDS011;62136;-35.664;-63.766;2022-09-09T12:53:43;12.93;;;5.38;;
59974;SDS011;62136;-35.664;-63.766;2022-09-09T12:56:18;14.85;;;5.28;;
59974;SDS011;62136;-35.664;-63.766;2022-09-09T12:58:49;11.63;;;5.43;;
59974;SDS011;62136;-35.664;-63.766;2022-09-09T13:03:54;8.50;;;3.97;;
59974;SDS011;62136;-35.664;-63.766;2022-09-09T13:06:26;9.13;;;3.58;;
59974;SDS011;62136;-35.664;-63.766;2022-09-09T13:08:54;7.60;;;4.28;;
59974;SDS011;62136;-35.664;-63.766;2022-09-09T13:11:26;9.93;;;4.07;;
59974;SDS011;62136;-35.664;-63.766;2022-09-09T13:13:59;8.23;;;3.20;;
59974;SDS011;62136;-35.664;-63.766;2022-09-09T13:16:27;7.93;;;4.07;;
59974;SDS011;62136;-35.664;-63.766;2022-09-09T13:21:57;6.82;;;3.13;;
59974;SDS011;62136;-35.664;-63.766;2022-09-09T13:24:31;5.82;;;2.80;;
59974;SDS011;62136;-35.664;-63.766;2022-09-09T13:27:04;7.05;;;2.80;;
59974;SDS011;62136;-35.664;-63.766;2022-09-09T13:29:54;5.65;;;3.35;;
59974;SDS011;62136;-35.664;-63.766;2022-09-09T13:32:22;6.32;;;3.13;;
59974;SDS011;62136;-35.664;-63.766;2022-09-09T13:34:53;7.35;;;3.97;;
59974;SDS011;62136;-35.664;-63.766;2022-09-09T13:37:30;5.80;;;3.30;;
59974;SDS011;62136;-35.664;-63.766;2022-09-09T13:39:58;8.70;;;3.17;;
59974;SDS011;62136;-35.664;-63.766;2022-09-09T13:42:26;6.40;;;3.25;;
59974;SDS011;62136;-35.664;-63.766;2022-09-09T13:44:56;7.63;;;2.80;;
59974;SDS011;62136;-35.664;-63.766;2022-09-09T13:47:33;5.70;;;2.55;;
59974;SDS011;62136;-35.664;-63.766;2022-09-09T13:50:22;6.07;;;2.90;;
59974;SDS011;62136;-35.664;-63.766;2022-09-09T13:52:54;5.47;;;3.00;;
59974;SDS011;62136;-35.664;-63.766;2022-09-09T13:55:27;9.88;;;4.35;;
59974;SDS011;62136;-35.664;-63.766;2022-09-09T14:00:28;10.30;;;4.88;;
59974;SDS011;62136;-35.664;-63.766;2022-09-09T14:02:56;9.13;;;5.90;;
59974;SDS011;62136;-35.664;-63.766;2022-09-09T14:05:27;7.82;;;3.97;;
59974;SDS011;62136;-35.664;-63.766;2022-09-09T14:07:57;10.60;;;4.45;;
59974;SDS011;62136;-35.664;-63.766;2022-09-09T14:10:26;7.88;;;4.07;;
59974;SDS011;62136;-35.664;-63.766;2022-09-09T14:12:54;8.00;;;4.20;;
59974;SDS011;62136;-35.664;-63.766;2022-09-09T14:15:28;7.83;;;4.27;;
59974;SDS011;62136;-35.664;-63.766;2022-09-09T14:17:56;6.65;;;4.00;;
59974;SDS011;62136;-35.664;-63.766;2022-09-09T14:20:42;7.05;;;4.18;;
59974;SDS011;62136;-35.664;-63.766;2022-09-09T14:23:10;5.97;;;4.00;;
59974;SDS011;62136;-35.664;-63.766;2022-09-09T14:25:42;6.65;;;4.03;;
59974;SDS011;62136;-35.664;-63.766;2022-09-09T14:28:10;7.20;;;3.88;;
59974;SDS011;62136;-35.664;-63.766;2022-09-09T14:30:39;9.80;;;5.57;;
59974;SDS011;62136;-35.664;-63.766;2022-09-09T14:33:08;13.50;;;5.55;;
59974;SDS011;62136;-35.664;-63.766;2022-09-09T14:35:37;7.75;;;4.70;;
59974;SDS011;62136;-35.664;-63.766;2022-09-09T14:38:06;11.13;;;5.82;;
59974;SDS011;62136;-35.664;-63.766;2022-09-09T14:40:35;14.43;;;6.15;;
59974;SDS011;62136;-35.664;-63.766;2022-09-09T14:43:05;8.07;;;5.88;;
59974;SDS011;62136;-35.664;-63.766;2022-09-09T14:45:32;9.30;;;5.72;;
59974;SDS011;62136;-35.664;-63.766;2022-09-09T14:48:03;13.00;;;5.97;;
59974;SDS011;62136;-35.664;-63.766;2022-09-09T14:50:30;9.23;;;5.90;;
59974;SDS011;62136;-35.664;-63.766;2022-09-09T14:52:58;11.20;;;6.07;;
59974;SDS011;62136;-35.664;-63.766;2022-09-09T14:55:25;10.93;;;7.20;;
59974;SDS011;62136;-35.664;-63.766;2022-09-09T14:57:54;12.23;;;8.70;;
59974;SDS011;62136;-35.664;-63.766;2022-09-09T15:00:21;12.02;;;7.20;;
59974;SDS011;62136;-35.664;-63.766;2022-09-09T15:02:51;12.77;;;7.38;;
59974;SDS011;62136;-35.664;-63.766;2022-09-09T15:05:24;16.13;;;8.93;;
59974;SDS011;62136;-35.664;-63.766;2022-09-09T15:07:53;17.90;;;9.48;;
59974;SDS011;62136;-35.664;-63.766;2022-09-09T15:10:22;18.40;;;11.10;;
59974;SDS011;62136;-35.664;-63.766;2022-09-09T15:12:49;20.73;;;11.15;;
59974;SDS011;62136;-35.664;-63.766;2022-09-09T15:15:16;23.85;;;12.35;;
59974;SDS011;62136;-35.664;-63.766;2022-09-09T15:17:43;26.83;;;13.77;;
59974;SDS011;62136;-35.664;-63.766;2022-09-09T15:20:10;21.90;;;12.82;;
59974;SDS011;62136;-35.664;-63.766;2022-09-09T15:22:37;21.23;;;13.45;;
59974;SDS011;62136;-35.664;-63.766;2022-09-09T15:25:05;22.00;;;14.88;;
59974;SDS011;62136;-35.664;-63.766;2022-09-09T15:27:33;22.50;;;15.25;;
59974;SDS011;62136;-35.664;-63.766;2022-09-09T15:30:02;24.88;;;16.17;;
59974;SDS011;62136;-35.664;-63.766;2022-09-09T15:32:29;28.30;;;17.70;;
59974;SDS011;62136;-35.664;-63.766;2022-09-09T15:34:58;26.88;;;16.85;;
59974;SDS011;62136;-35.664;-63.766;2022-09-09T15:37:25;33.55;;;18.67;;
59974;SDS011;62136;-35.664;-63.766;2022-09-09T15:39:53;35.10;;;18.67;;
59974;SDS011;62136;-35.664;-63.766;2022-09-09T15:42:23;29.00;;;19.40;;
59974;SDS011;62136;-35.664;-63.766;2022-09-09T15:44:50;33.53;;;19.63;;
59974;SDS011;62136;-35.664;-63.766;2022-09-09T15:47:17;32.80;;;19.38;;
59974;SDS011;62136;-35.664;-63.766;2022-09-09T15:49:45;26.85;;;18.65;;
59974;SDS011;62136;-35.664;-63.766;2022-09-09T15:52:12;23.40;;;17.98;;
59974;SDS011;62136;-35.664;-63.766;2022-09-09T15:54:39;29.33;;;18.02;;
59974;SDS011;62136;-35.664;-63.766;2022-09-09T15:57:10;28.55;;;19.08;;
59974;SDS011;62136;-35.664;-63.766;2022-09-09T15:59:39;26.27;;;17.65;;
59974;SDS011;62136;-35.664;-63.766;2022-09-09T16:02:06;26.10;;;18.20;;
59974;SDS011;62136;-35.664;-63.766;2022-09-09T16:04:33;29.50;;;18.25;;
59974;SDS011;62136;-35.664;-63.766;2022-09-09T16:07:01;23.85;;;18.45;;
59974;SDS011;62136;-35.664;-63.766;2022-09-09T16:09:30;23.75;;;16.20;;
59974;SDS011;62136;-35.664;-63.766;2022-09-09T16:11:59;28.00;;;17.58;;
59974;SDS011;62136;-35.664;-63.766;2022-09-09T16:14:28;25.60;;;16.55;;
59974;SDS011;62136;-35.664;-63.766;2022-09-09T16:16:59;21.80;;;15.52;;
59974;SDS011;62136;-35.664;-63.766;2022-09-09T16:19:28;21.15;;;15.02;;
59974;SDS011;62136;-35.664;-63.766;2022-09-09T16:21:55;24.77;;;16.00;;
59974;SDS011;62136;-35.664;-63.766;2022-09-09T16:24:22;22.25;;;14.85;;
59974;SDS011;62136;-35.664;-63.766;2022-09-09T16:26:50;21.02;;;15.50;;
59974;SDS011;62136;-35.664;-63.766;2022-09-09T16:29:19;22.15;;;14.30;;
59974;SDS011;62136;-35.664;-63.766;2022-09-09T16:31:48;19.58;;;15.70;;
59974;SDS011;62136;-35.664;-63.766;2022-09-09T16:34:16;22.85;;;14.70;;
59974;SDS011;62136;-35.664;-63.766;2022-09-09T16:36:44;23.33;;;15.10;;
59974;SDS011;62136;-35.664;-63.766;2022-09-09T16:39:13;19.58;;;13.05;;
59974;SDS011;62136;-35.664;-63.766;2022-09-09T16:41:44;14.93;;;12.13;;
59974;SDS011;62136;-35.664;-63.766;2022-09-09T16:44:13;15.60;;;13.30;;
59974;SDS011;62136;-35.664;-63.766;2022-09-09T16:46:43;14.15;;;11.85;;
59974;SDS011;62136;-35.664;-63.766;2022-09-09T16:49:12;16.95;;;12.82;;
59974;SDS011;62136;-35.664;-63.766;2022-09-09T16:54:12;10.52;;;9.38;;
59974;SDS011;62136;-35.664;-63.766;2022-09-09T16:56:41;12.43;;;9.02;;